Time;durP1;ratioP1;P1;durP2;ratioP2;P2;SDS_P1;SDS_P2;PMS_P1;PMS_P2;Temp;Humidity;BMP_temperature;BMP_pressure;BME280_temperature;BME280_humidity;BME280_pressure;Samples;Min_cycle;Max_cycle;Signal;HPM_P1;HPM_P2
2021/03/28 00:02:27;;;;;;;1.10;1.10;;;9.10;99.90;;;;;;4916801;29;20507;-74
2021/03/28 00:04:54;;;;;;;0.57;0.57;;;9.20;99.90;;;;;;4916753;29;20250;-76
2021/03/28 00:07:22;;;;;;;4.72;1.65;;;9.20;99.90;;;;;;4916691;29;20188;-73
2021/03/28 00:09:54;;;;;;;0.40;0.40;;;9.20;99.90;;;;;;4916895;29;20176;-75
2021/03/28 00:12:31;;;;;;;1.58;1.48;;;9.10;99.90;;;;;;4920562;29;20259;-76
2021/03/28 00:15:09;;;;;;;1.08;0.73;;;9.10;99.90;;;;;;4920297;29;20195;-76
2021/03/28 00:17:39;;;;;;;0.20;0.20;;;8.90;99.90;;;;;;4920472;29;20203;-76
2021/03/28 00:20:14;;;;;;;0.85;0.40;;;9.00;99.90;;;;;;4920170;29;20220;-76
2021/03/28 00:22:45;;;;;;;0.20;0.20;;;9.20;99.90;;;;;;4920231;29;20170;-76
2021/03/28 00:25:30;;;;;;;0.65;0.57;;;9.00;99.90;;;;;;4920252;29;20211;-75
2021/03/28 00:27:56;;;;;;;0.20;0.20;;;9.00;99.90;;;;;;4920217;29;20192;-76
2021/03/28 00:30:34;;;;;;;0.20;0.20;;;9.00;99.90;;;;;;4920164;29;20182;-75
2021/03/28 00:33:01;;;;;;;2.08;1.00;;;9.10;99.90;;;;;;4920146;29;20183;-76
2021/03/28 00:35:35;;;;;;;0.63;0.63;;;9.20;99.90;;;;;;4920063;29;20188;-75
2021/03/28 00:38:13;;;;;;;1.95;0.55;;;9.10;99.90;;;;;;4919999;29;20188;-76
2021/03/28 00:40:41;;;;;;;0.40;0.40;;;8.90;99.90;;;;;;4920019;29;20184;-76
2021/03/28 00:43:13;;;;;;;0.60;0.60;;;8.90;99.90;;;;;;4920033;29;20200;-76
2021/03/28 00:45:42;;;;;;;0.20;0.20;;;8.80;99.90;;;;;;4919958;29;20171;-76
2021/03/28 00:48:49;;;;;;;0.20;0.20;;;8.80;99.90;;;;;;4902996;29;20195;-76
2021/03/28 00:51:20;;;;;;;0.30;0.30;;;8.70;99.90;;;;;;4843158;29;20186;-75
2021/03/28 00:53:51;;;;;;;0.30;0.30;;;8.70;99.90;;;;;;4910365;29;20222;-76
2021/03/28 00:56:40;;;;;;;0.50;0.50;;;8.70;99.90;;;;;;4919686;29;20270;-73
2021/03/28 00:59:31;;;;;;;1.10;0.68;;;9.00;99.90;;;;;;4919795;29;20156;-74
2021/03/28 01:02:20;;;;;;;0.40;0.40;;;8.90;99.90;;;;;;4919835;29;20519;-73
2021/03/28 01:05:00;;;;;;;1.17;0.88;;;8.70;99.90;;;;;;4919574;29;20256;-74
2021/03/28 01:07:32;;;;;;;0.28;0.28;;;8.80;99.90;;;;;;4919471;29;20199;-74
2021/03/28 01:10:25;;;;;;;1.38;0.45;;;8.80;99.90;;;;;;4919552;29;20171;-75
2021/03/28 01:13:29;;;;;;;0.30;0.30;;;8.90;99.90;;;;;;4919503;29;20259;-73
2021/03/28 01:16:34;;;;;;;1.42;0.65;;;8.90;99.90;;;;;;4919281;29;20192;-73
2021/03/28 01:19:36;;;;;;;0.25;0.25;;;8.80;99.90;;;;;;4919380;29;20623;-74
2021/03/28 01:22:16;;;;;;;0.35;0.35;;;8.60;99.90;;;;;;4918570;29;20172;-73
2021/03/28 01:25:00;;;;;;;0.73;0.73;;;8.70;99.90;;;;;;4919268;29;20528;-73
2021/03/28 01:27:50;;;;;;;17.25;0.52;;;8.90;99.90;;;;;;4919144;29;20334;-73
2021/03/28 01:30:37;;;;;;;0.22;0.22;;;9.00;99.90;;;;;;4902091;29;20187;-73
2021/03/28 01:33:11;;;;;;;3.42;1.65;;;9.00;99.90;;;;;;4918395;29;20203;-74
2021/03/28 01:35:48;;;;;;;0.40;0.40;;;9.00;99.90;;;;;;4919107;29;20667;-73
2021/03/28 01:38:23;;;;;;;0.35;0.35;;;9.00;99.90;;;;;;4918886;29;20188;-73
2021/03/28 01:41:15;;;;;;;0.30;0.30;;;9.10;99.90;;;;;;4919074;29;20190;-74
2021/03/28 01:43:50;;;;;;;0.65;0.50;;;9.10;99.90;;;;;;4918923;29;20186;-74
2021/03/28 01:47:02;;;;;;;1.55;0.65;;;9.10;99.90;;;;;;4918846;29;20156;-73
2021/03/28 01:49:49;;;;;;;0.30;0.30;;;9.20;99.90;;;;;;4918762;29;20636;-74
2021/03/28 01:52:36;;;;;;;1.40;1.30;;;9.20;99.90;;;;;;4918836;29;20179;-73
2021/03/28 01:55:39;;;;;;;0.30;0.30;;;9.00;99.90;;;;;;4918685;29;20203;-73
2021/03/28 01:58:12;;;;;;;0.30;0.30;;;9.00;99.90;;;;;;4918645;29;20202;-74
2021/03/28 02:00:47;;;;;;;0.40;0.40;;;9.00;99.90;;;;;;4918643;29;20215;-74
2021/03/28 02:03:59;;;;;;;0.30;0.30;;;9.00;99.90;;;;;;4918596;29;20180;-74
2021/03/28 02:06:40;;;;;;;0.50;0.50;;;9.20;99.90;;;;;;4841830;29;20269;-74
2021/03/28 02:09:08;;;;;;;0.47;0.47;;;9.30;99.90;;;;;;4841800;29;20631;-74
2021/03/28 02:12:04;;;;;;;9.55;1.10;;;9.30;99.90;;;;;;4886551;29;20187;-74
2021/03/28 02:14:47;;;;;;;0.30;0.30;;;9.30;99.90;;;;;;4918372;29;20176;-74
2021/03/28 02:17:24;;;;;;;0.30;0.30;;;9.00;99.90;;;;;;4918318;29;20271;-76
2021/03/28 02:20:16;;;;;;;0.40;0.40;;;9.10;99.90;;;;;;4918171;29;20587;-75
2021/03/28 02:22:47;;;;;;;0.50;0.50;;;9.10;99.90;;;;;;4882884;29;20195;-74
2021/03/28 02:25:13;;;;;;;9.38;1.00;;;9.20;99.90;;;;;;4918402;29;20176;-75
2021/03/28 02:27:44;;;;;;;0.17;0.17;;;9.30;99.90;;;;;;4918061;29;20200;-76
2021/03/28 02:30:26;;;;;;;13.52;1.70;;;9.30;99.90;;;;;;4918098;29;20178;-75
2021/03/28 02:33:08;;;;;;;4.57;1.95;;;9.40;99.90;;;;;;4918054;29;20632;-76
2021/03/28 02:35:43;;;;;;;1.25;1.15;;;9.50;99.90;;;;;;4917313;29;20664;-76
2021/03/28 02:38:20;;;;;;;0.45;0.45;;;9.50;99.90;;;;;;4917864;29;20194;-74
2021/03/28 02:41:04;;;;;;;0.65;0.65;;;9.50;99.90;;;;;;4917895;29;20207;-75
2021/03/28 02:43:45;;;;;;;0.22;0.22;;;9.40;99.90;;;;;;4917884;29;20627;-76
2021/03/28 02:46:49;;;;;;;0.75;0.75;;;9.50;99.90;;;;;;4917848;29;20628;-76
2021/03/28 02:49:29;;;;;;;0.30;0.30;;;9.40;99.90;;;;;;4917657;29;20187;-75
2021/03/28 02:52:12;;;;;;;0.75;0.50;;;9.60;99.90;;;;;;4917787;29;20280;-76
2021/03/28 02:54:57;;;;;;;0.55;0.55;;;9.60;99.90;;;;;;4917598;29;20199;-75
2021/03/28 02:57:51;;;;;;;0.20;0.20;;;9.70;99.90;;;;;;4917991;29;20683;-76
2021/03/28 03:00:32;;;;;;;0.20;0.20;;;9.80;99.90;;;;;;4917527;29;20160;-75
2021/03/28 03:03:35;;;;;;;0.95;0.85;;;9.90;99.90;;;;;;4917457;29;20172;-75
2021/03/28 03:06:22;;;;;;;0.38;0.38;;;9.70;99.90;;;;;;4875553;29;20207;-76
2021/03/28 03:09:13;;;;;;;0.30;0.30;;;9.80;99.90;;;;;;4917448;29;20168;-76
2021/03/28 03:12:17;;;;;;;0.43;0.43;;;9.70;99.90;;;;;;4917396;29;20255;-76
2021/03/28 03:15:20;;;;;;;0.20;0.20;;;9.70;99.90;;;;;;4917222;29;20179;-76
2021/03/28 03:17:57;;;;;;;0.38;0.38;;;9.80;99.90;;;;;;4917376;29;20191;-76
2021/03/28 03:20:44;;;;;;;0.20;0.20;;;9.80;99.90;;;;;;4917263;29;20659;-76
2021/03/28 03:23:34;;;;;;;0.93;0.93;;;9.70;99.90;;;;;;4917231;29;20176;-75
2021/03/28 03:26:11;;;;;;;0.73;0.68;;;9.80;99.90;;;;;;4917280;29;20251;-76
2021/03/28 03:29:02;;;;;;;1.13;1.02;;;9.70;99.90;;;;;;4917359;29;20195;-75
2021/03/28 03:31:37;;;;;;;0.20;0.20;;;9.80;99.90;;;;;;4917155;29;20179;-76
2021/03/28 03:34:29;;;;;;;0.40;0.40;;;9.70;99.90;;;;;;4917072;29;20176;-76
2021/03/28 03:37:25;;;;;;;1.30;0.77;;;9.60;99.90;;;;;;4917035;29;20632;-73
2021/03/28 03:40:21;;;;;;;0.35;0.32;;;9.50;99.90;;;;;;4917089;29;20180;-73
2021/03/28 03:43:17;;;;;;;0.20;0.20;;;9.50;99.90;;;;;;4916990;29;20180;-74
2021/03/28 03:46:07;;;;;;;0.68;0.68;;;9.50;99.90;;;;;;4916709;29;20745;-73
2021/03/28 03:48:36;;;;;;;0.50;0.50;;;9.50;99.90;;;;;;4917180;29;20195;-73
2021/03/28 03:51:24;;;;;;;0.20;0.20;;;9.50;99.90;;;;;;4916836;29;20191;-74
2021/03/28 03:54:29;;;;;;;0.60;0.60;;;9.70;99.90;;;;;;4916821;29;20172;-74
2021/03/28 03:57:06;;;;;;;0.50;0.50;;;9.70;99.90;;;;;;4915977;29;20242;-75
2021/03/28 03:59:52;;;;;;;0.47;0.47;;;9.80;99.90;;;;;;4900065;29;20168;-74
2021/03/28 04:02:21;;;;;;;0.20;0.20;;;9.70;99.90;;;;;;4916836;29;20171;-73
2021/03/28 04:05:08;;;;;;;0.20;0.20;;;9.80;99.90;;;;;;4916716;29;20579;-72
2021/03/28 04:07:51;;;;;;;0.35;0.30;;;9.80;99.90;;;;;;4916661;29;20223;-74
2021/03/28 04:10:32;;;;;;;0.17;0.17;;;9.80;99.90;;;;;;4916718;29;20506;-73
2021/03/28 04:13:08;;;;;;;2.17;0.85;;;9.80;99.90;;;;;;4916615;29;20203;-73
2021/03/28 04:16:11;;;;;;;1.30;1.20;;;9.70;99.90;;;;;;4916848;29;20633;-74
2021/03/28 04:19:01;;;;;;;0.82;0.82;;;9.80;99.90;;;;;;4916573;29;20257;-74
2021/03/28 04:22:05;;;;;;;15.25;0.73;;;9.80;99.90;;;;;;4916532;29;20235;-75
2021/03/28 04:24:42;;;;;;;0.57;0.57;;;9.90;99.90;;;;;;4840042;29;20194;-73
2021/03/28 04:27:34;;;;;;;0.50;0.50;;;9.80;99.90;;;;;;4906389;29;20227;-74
2021/03/28 04:30:00;;;;;;;0.82;0.82;;;9.90;99.90;;;;;;4899596;29;20183;-73
2021/03/28 04:32:44;;;;;;;1.92;1.83;;;10.00;99.90;;;;;;4916451;29;20168;-73
2021/03/28 04:35:43;;;;;;;0.90;0.90;;;9.90;99.90;;;;;;4916471;29;20199;-73
2021/03/28 04:38:24;;;;;;;0.70;0.70;;;9.70;99.90;;;;;;4916468;29;20264;-75
2021/03/28 04:41:31;;;;;;;0.15;0.15;;;9.80;99.90;;;;;;4916343;29;20172;-75
2021/03/28 04:44:19;;;;;;;0.38;0.38;;;9.90;99.90;;;;;;4915893;29;20215;-75
2021/03/28 04:47:03;;;;;;;0.43;0.40;;;9.90;99.90;;;;;;4916461;29;20196;-76
2021/03/28 04:49:49;;;;;;;1.48;1.48;;;9.90;99.90;;;;;;4916387;29;20255;-74
2021/03/28 04:52:33;;;;;;;0.30;0.30;;;9.80;99.90;;;;;;4916243;29;20156;-75
2021/03/28 04:55:01;;;;;;;0.40;0.40;;;9.80;99.90;;;;;;4916326;29;20180;-74
2021/03/28 04:57:33;;;;;;;5.03;1.42;;;9.90;99.90;;;;;;4917174;29;20196;-76
2021/03/28 05:00:22;;;;;;;1.05;0.85;;;9.90;99.90;;;;;;4919564;29;20259;-75
2021/03/28 05:03:25;;;;;;;18.90;0.77;;;9.90;99.90;;;;;;4905875;29;20195;-75
2021/03/28 05:06:11;;;;;;;0.25;0.25;;;9.80;99.90;;;;;;4919605;29;20192;-75
2021/03/28 05:08:52;;;;;;;1.48;0.88;;;9.80;99.90;;;;;;4919625;29;20170;-75
2021/03/28 05:11:56;;;;;;;0.88;0.88;;;10.00;99.90;;;;;;4919489;29;20625;-75
2021/03/28 05:14:32;;;;;;;0.20;0.20;;;9.80;99.90;;;;;;4919419;29;20175;-74
2021/03/28 05:16:57;;;;;;;0.55;0.55;;;9.90;99.90;;;;;;4919126;29;20243;-75
2021/03/28 05:19:41;;;;;;;7.13;1.55;;;9.80;99.90;;;;;;4919269;29;20270;-75
2021/03/28 05:22:33;;;;;;;1.88;1.00;;;9.80;99.90;;;;;;4919241;29;20168;-74
2021/03/28 05:25:29;;;;;;;3.72;1.40;;;9.80;99.90;;;;;;4919262;29;20160;-75
2021/03/28 05:28:13;;;;;;;0.30;0.30;;;9.80;99.90;;;;;;4919205;29;20200;-74
2021/03/28 05:30:56;;;;;;;5.88;1.05;;;9.80;99.90;;;;;;4919168;29;20176;-76
2021/03/28 05:33:41;;;;;;;1.60;0.65;;;9.80;99.90;;;;;;4919068;29;20207;-74
2021/03/28 05:36:24;;;;;;;0.50;0.50;;;9.60;99.90;;;;;;4918952;29;20200;-74
2021/03/28 05:39:27;;;;;;;0.85;0.85;;;9.40;99.90;;;;;;4919085;29;20526;-74
2021/03/28 05:42:07;;;;;;;0.52;0.52;;;9.60;99.90;;;;;;4918900;29;20621;-74
2021/03/28 05:45:02;;;;;;;5.57;1.25;;;9.60;99.90;;;;;;4918917;29;20623;-74
2021/03/28 05:47:42;;;;;;;0.50;0.50;;;9.40;99.90;;;;;;4918559;29;20192;-74
2021/03/28 05:50:32;;;;;;;0.82;0.82;;;9.40;99.90;;;;;;4918890;29;20190;-75
2021/03/28 05:53:38;;;;;;;0.40;0.40;;;9.30;99.90;;;;;;4918930;29;20164;-76
2021/03/28 05:56:28;;;;;;;0.50;0.50;;;9.40;99.90;;;;;;4918491;29;20206;-75
2021/03/28 05:59:09;;;;;;;0.30;0.30;;;9.30;99.90;;;;;;4918678;29;20211;-74
2021/03/28 06:02:12;;;;;;;0.60;0.60;;;9.30;99.90;;;;;;4918404;29;20172;-76
2021/03/28 06:05:07;;;;;;;6.13;1.35;;;9.20;99.90;;;;;;4918553;29;20234;-75
2021/03/28 06:07:38;;;;;;;2.10;1.05;;;9.30;99.90;;;;;;4902071;29;20710;-74
2021/03/28 06:10:32;;;;;;;1.83;1.13;;;9.40;99.90;;;;;;4918225;29;20283;-74
2021/03/28 06:13:26;;;;;;;0.60;0.60;;;9.40;99.90;;;;;;4918297;29;20765;-75
2021/03/28 06:16:17;;;;;;;2.03;1.88;;;9.40;99.90;;;;;;4918203;29;20199;-73
2021/03/28 06:19:03;;;;;;;0.32;0.32;;;9.50;99.90;;;;;;4918554;29;20682;-73
2021/03/28 06:22:11;;;;;;;0.52;0.52;;;9.60;99.90;;;;;;4918331;29;20194;-73
2021/03/28 06:24:58;;;;;;;1.73;0.82;;;9.80;99.90;;;;;;4918231;29;20199;-73
2021/03/28 06:28:00;;;;;;;0.63;0.63;;;9.90;99.90;;;;;;4918117;29;20196;-73
2021/03/28 06:30:44;;;;;;;2.33;0.30;;;10.10;99.90;;;;;;4917918;29;20223;-73
2021/03/28 06:33:24;;;;;;;0.55;0.55;;;10.00;99.90;;;;;;4917946;29;20180;-74
2021/03/28 06:36:24;;;;;;;1.25;0.95;;;10.20;99.90;;;;;;4917802;29;20667;-73
2021/03/28 06:39:16;;;;;;;2.33;1.35;;;10.20;99.90;;;;;;4917685;29;20168;-73
2021/03/28 06:41:51;;;;;;;0.20;0.20;;;10.20;99.90;;;;;;4917825;29;20168;-73
2021/03/28 06:44:43;;;;;;;3.20;0.60;;;10.30;99.90;;;;;;4917824;29;20179;-73
2021/03/28 06:47:56;;;;;;;0.63;0.63;;;10.30;99.90;;;;;;4900370;29;20722;-73
2021/03/28 06:50:40;;;;;;;0.65;0.65;;;10.40;99.90;;;;;;4875364;29;20192;-73
2021/03/28 06:53:17;;;;;;;1.00;0.90;;;10.50;99.90;;;;;;4917551;29;20195;-74
2021/03/28 06:55:47;;;;;;;1.23;1.15;;;10.70;99.90;;;;;;4917456;29;20195;-73
2021/03/28 06:58:32;;;;;;;0.40;0.40;;;10.70;99.90;;;;;;4917386;29;20590;-74
2021/03/28 07:01:39;;;;;;;0.38;0.38;;;10.80;99.90;;;;;;4917392;29;20636;-73
2021/03/28 07:04:32;;;;;;;0.88;0.88;;;10.60;99.90;;;;;;4916689;29;20195;-74
2021/03/28 07:07:25;;;;;;;0.80;0.80;;;10.60;99.90;;;;;;4917184;29;20195;-74
2021/03/28 07:10:16;;;;;;;0.52;0.52;;;10.60;99.90;;;;;;4917107;29;20251;-74
2021/03/28 07:13:14;;;;;;;0.30;0.30;;;10.50;99.90;;;;;;4917234;29;20215;-73
2021/03/28 07:16:17;;;;;;;9.43;0.82;;;10.70;99.90;;;;;;4916956;29;20191;-73
2021/03/28 07:19:07;;;;;;;0.45;0.45;;;10.80;99.90;;;;;;4917147;29;20215;-73
2021/03/28 07:22:10;;;;;;;0.50;0.50;;;10.90;99.90;;;;;;4916667;29;20176;-74
2021/03/28 07:25:06;;;;;;;1.90;1.15;;;10.90;99.90;;;;;;4916963;29;20167;-73
2021/03/28 07:27:51;;;;;;;6.45;0.90;;;10.80;99.90;;;;;;4916643;29;20254;-75
2021/03/28 07:30:38;;;;;;;0.40;0.40;;;10.90;99.90;;;;;;4916872;29;20168;-73
2021/03/28 07:33:31;;;;;;;0.40;0.40;;;11.00;99.90;;;;;;4916702;29;20179;-75
2021/03/28 07:36:13;;;;;;;0.40;0.40;;;11.00;99.90;;;;;;4916723;29;20555;-73
2021/03/28 07:39:12;;;;;;;1.45;0.80;;;11.20;99.90;;;;;;4916881;29;20535;-73
2021/03/28 07:42:18;;;;;;;0.20;0.20;;;11.40;99.90;;;;;;4915941;29;20188;-73
2021/03/28 07:45:17;;;;;;;5.28;1.35;;;11.10;99.90;;;;;;4879448;29;20215;-73
2021/03/28 07:48:16;;;;;;;0.30;0.30;;;11.10;99.90;;;;;;4916768;29;20202;-74
2021/03/28 07:51:12;;;;;;;3.65;1.52;;;10.90;99.90;;;;;;4916750;29;20172;-73
2021/03/28 07:53:54;;;;;;;15.43;0.90;;;10.80;99.90;;;;;;4916661;29;20251;-75
2021/03/28 07:56:44;;;;;;;0.30;0.30;;;10.70;99.90;;;;;;4916589;29;20207;-73
2021/03/28 07:59:14;;;;;;;1.00;0.75;;;10.80;99.90;;;;;;4916686;29;20176;-74
2021/03/28 08:01:45;;;;;;;0.52;0.52;;;10.80;99.90;;;;;;4916102;29;20210;-75
2021/03/28 08:04:48;;;;;;;0.65;0.65;;;10.80;99.90;;;;;;4916596;29;20579;-74
2021/03/28 08:07:15;;;;;;;0.55;0.55;;;11.00;99.90;;;;;;4916241;29;20195;-75
2021/03/28 08:10:14;;;;;;;1.38;0.85;;;11.00;99.90;;;;;;4916473;29;20168;-74
2021/03/28 08:13:14;;;;;;;0.50;0.50;;;11.20;99.90;;;;;;4916402;29;20195;-74
2021/03/28 08:16:18;;;;;;;0.63;0.63;;;11.20;99.90;;;;;;4914725;29;20280;-73
2021/03/28 08:18:49;;;;;;;7.22;0.80;;;11.30;99.90;;;;;;4909549;29;20259;-74
2021/03/28 08:24:14;;;;;;;1.27;0.73;;;11.40;99.90;;;;;;4916345;29;20184;-75
2021/03/28 08:27:05;;;;;;;1.90;1.13;;;11.40;99.90;;;;;;4915357;29;20194;-74
2021/03/28 08:29:33;;;;;;;0.20;0.20;;;11.50;99.90;;;;;;4916310;29;20163;-74
2021/03/28 08:32:20;;;;;;;0.20;0.20;;;11.50;99.90;;;;;;4900995;29;20239;-74
2021/03/28 08:35:22;;;;;;;0.30;0.30;;;11.70;99.90;;;;;;4902952;29;20184;-75
2021/03/28 08:38:02;;;;;;;0.77;0.77;;;11.90;99.90;;;;;;4917255;29;20219;-75
2021/03/28 08:40:57;;;;;;;0.30;0.30;;;12.10;99.90;;;;;;4917327;29;20183;-75
2021/03/28 08:44:14;;;;;;;0.20;0.20;;;12.00;99.90;;;;;;4910054;29;20224;-75
2021/03/28 08:47:01;;;;;;;0.20;0.20;;;12.10;99.90;;;;;;4918500;29;20200;-75
2021/03/28 08:50:00;;;;;;;0.43;0.43;;;12.10;99.90;;;;;;4916728;29;20187;-75
2021/03/28 08:52:44;;;;;;;0.82;0.82;;;12.10;99.90;;;;;;4892217;29;20180;-76
2021/03/28 08:55:50;;;;;;;0.65;0.65;;;12.00;99.90;;;;;;4900714;29;20232;-74
2021/03/28 08:58:27;;;;;;;0.38;0.38;;;12.00;99.90;;;;;;4885104;29;20268;-79
2021/03/28 09:01:03;;;;;;;0.75;0.43;;;12.00;99.90;;;;;;4918092;29;20180;-73
2021/03/28 09:04:17;;;;;;;0.25;0.25;;;12.00;99.90;;;;;;4901164;29;20179;-75
2021/03/28 09:06:58;;;;;;;0.40;0.40;;;12.00;99.90;;;;;;4851304;29;20320;-74
2021/03/28 09:09:38;;;;;;;0.80;0.80;;;12.10;99.90;;;;;;4919127;29;20160;-76
2021/03/28 09:12:16;;;;;;;0.95;0.95;;;12.20;99.90;;;;;;4919379;29;20623;-76
2021/03/28 09:15:03;;;;;;;0.90;0.85;;;12.20;99.90;;;;;;4919068;29;20188;-73
2021/03/28 09:17:31;;;;;;;0.20;0.20;;;12.40;99.90;;;;;;4918895;29;20664;-74
2021/03/28 09:20:09;;;;;;;0.50;0.50;;;12.60;99.90;;;;;;4918870;29;20220;-75
2021/03/28 09:22:56;;;;;;;0.45;0.45;;;12.70;99.90;;;;;;4919471;29;20172;-81
2021/03/28 09:25:36;;;;;;;2.05;1.30;;;12.80;99.90;;;;;;4917367;29;20190;-75
2021/03/28 09:28:42;;;;;;;0.20;0.20;;;12.80;99.90;;;;;;4918564;29;20262;-74
2021/03/28 09:31:37;;;;;;;0.30;0.30;;;12.90;99.90;;;;;;4892504;29;20275;-75
2021/03/28 09:34:08;;;;;;;0.70;0.70;;;12.90;99.90;;;;;;4911778;29;20184;-74
2021/03/28 09:37:01;;;;;;;0.32;0.32;;;12.90;99.90;;;;;;4917221;29;20688;-76
2021/03/28 09:39:58;;;;;;;0.30;0.30;;;13.00;99.90;;;;;;4918217;29;20631;-73
2021/03/28 09:43:01;;;;;;;0.20;0.20;;;13.30;99.90;;;;;;4918688;29;20168;-73
2021/03/28 09:45:55;;;;;;;0.65;0.65;;;13.50;99.90;;;;;;4934252;23;20180;-73
2021/03/28 09:48:51;;;;;;;0.70;0.70;;;13.70;99.90;;;;;;4932091;29;20601;-73
2021/03/28 09:51:46;;;;;;;0.20;0.20;;;13.60;99.90;;;;;;4935687;29;20183;-75
2021/03/28 09:54:50;;;;;;;0.82;0.80;;;13.80;99.90;;;;;;4934868;29;20203;-75
2021/03/28 09:57:31;;;;;;;0.65;0.65;;;13.70;99.90;;;;;;4934421;29;20250;-74
2021/03/28 10:00:13;;;;;;;0.47;0.47;;;13.80;99.90;;;;;;4936619;29;20175;-74
2021/03/28 10:02:55;;;;;;;0.60;0.60;;;13.70;99.90;;;;;;4936740;29;20182;-73
2021/03/28 10:05:27;;;;;;;0.20;0.20;;;13.70;99.90;;;;;;4936630;29;20517;-73
2021/03/28 10:08:05;;;;;;;8.13;0.70;;;13.70;99.90;;;;;;4936907;29;20232;-73
2021/03/28 10:10:39;;;;;;;0.35;0.30;;;13.90;99.90;;;;;;4937221;29;20182;-73
2021/03/28 10:13:26;;;;;;;0.20;0.20;;;13.90;99.90;;;;;;4937077;29;20245;-73
2021/03/28 10:16:03;;;;;;;0.77;0.77;;;13.80;99.90;;;;;;4936985;29;20199;-73
2021/03/28 10:19:00;;;;;;;0.40;0.40;;;13.90;99.90;;;;;;4935445;29;20233;-73
2021/03/28 10:21:31;;;;;;;0.28;0.28;;;14.00;99.90;;;;;;4929117;29;20191;-74
2021/03/28 10:24:17;;;;;;;1.35;0.70;;;13.90;99.90;;;;;;4936199;29;20185;-73
2021/03/28 10:27:09;;;;;;;0.20;0.20;;;13.90;99.90;;;;;;4926113;29;20207;-73
2021/03/28 10:29:44;;;;;;;0.40;0.40;;;14.00;99.90;;;;;;4937231;29;20179;-74
2021/03/28 10:32:31;;;;;;;2.75;1.05;;;14.20;99.90;;;;;;4937101;29;20279;-72
2021/03/28 10:35:26;;;;;;;1.85;0.40;;;14.20;99.90;;;;;;4936712;29;20179;-73
2021/03/28 10:38:12;;;;;;;0.20;0.20;;;14.20;99.90;;;;;;4936567;29;20229;-72
2021/03/28 10:40:51;;;;;;;0.20;0.20;;;14.20;99.90;;;;;;4936883;29;20526;-73
2021/03/28 10:43:29;;;;;;;1.13;1.08;;;14.40;99.90;;;;;;4935457;29;20183;-72
2021/03/28 10:45:54;;;;;;;1.42;0.93;;;14.40;99.90;;;;;;4941627;29;20221;-72
2021/03/28 10:48:41;;;;;;;0.30;0.30;;;14.50;99.90;;;;;;4955352;28;20186;-75
2021/03/28 10:51:50;;;;;;;0.20;0.20;;;14.60;99.90;;;;;;4955558;29;20253;-72
2021/03/28 10:54:46;;;;;;;1.17;0.60;;;15.10;99.90;;;;;;4955368;28;20178;-72
2021/03/28 10:57:46;;;;;;;0.85;0.73;;;15.00;99.90;;;;;;4954966;28;20222;-72
2021/03/28 11:00:49;;;;;;;0.20;0.20;;;14.70;99.90;;;;;;4955127;29;20204;-74
2021/03/28 11:03:29;;;;;;;2.67;0.40;;;14.70;99.90;;;;;;4955537;29;20178;-73
2021/03/28 11:06:16;;;;;;;0.40;0.40;;;14.70;99.90;;;;;;4955375;29;20169;-74
2021/03/28 11:09:06;;;;;;;2.75;0.60;;;14.80;99.90;;;;;;4955245;29;20167;-73
2021/03/28 11:12:01;;;;;;;0.40;0.40;;;15.00;99.90;;;;;;4954280;29;20634;-73
2021/03/28 11:14:47;;;;;;;0.45;0.45;;;14.90;99.90;;;;;;4955283;29;20518;-73
2021/03/28 11:17:34;;;;;;;0.10;0.10;;;15.10;99.90;;;;;;4954001;28;20222;-73
2021/03/28 11:20:00;;;;;;;0.25;0.25;;;15.00;99.90;;;;;;4949028;29;20170;-74
2021/03/28 11:22:59;;;;;;;0.28;0.28;;;14.90;99.90;;;;;;4955182;29;20773;-73
2021/03/28 11:25:30;;;;;;;5.28;1.10;;;14.80;99.90;;;;;;4955023;29;20174;-74
2021/03/28 11:27:55;;;;;;;0.15;0.15;;;14.90;99.90;;;;;;4954902;29;20190;-73
2021/03/28 11:30:33;;;;;;;12.15;0.93;;;15.20;99.90;;;;;;4955063;29;20271;-74
2021/03/28 11:33:14;;;;;;;0.25;0.25;;;15.10;99.90;;;;;;4955175;29;20162;-74
2021/03/28 11:35:54;;;;;;;0.20;0.20;;;15.40;99.90;;;;;;4955035;29;20205;-74
2021/03/28 11:38:20;;;;;;;0.38;0.38;;;15.40;99.90;;;;;;4954813;29;20277;-76
2021/03/28 11:40:48;;;;;;;0.20;0.20;;;15.60;99.90;;;;;;4937846;29;20268;-74
2021/03/28 11:43:41;;;;;;;0.20;0.20;;;15.60;99.90;;;;;;4954952;29;20163;-74
2021/03/28 11:46:47;;;;;;;3.75;1.02;;;15.60;99.90;;;;;;4954435;29;20230;-75
2021/03/28 11:49:16;;;;;;;0.60;0.60;;;15.60;99.90;;;;;;4954958;29;20271;-74
2021/03/28 11:51:52;;;;;;;0.40;0.40;;;15.60;99.90;;;;;;4954844;29;20588;-75
2021/03/28 11:54:27;;;;;;;0.60;0.60;;;15.50;99.90;;;;;;4954742;29;20573;-75
2021/03/28 11:57:05;;;;;;;0.45;0.45;;;15.80;99.90;;;;;;4954325;29;20209;-76
2021/03/28 11:59:40;;;;;;;0.30;0.30;;;15.70;99.90;;;;;;4954533;29;20209;-74
2021/03/28 12:02:30;;;;;;;0.40;0.40;;;15.60;99.90;;;;;;4954718;29;20220;-80
2021/03/28 12:04:59;;;;;;;7.18;0.30;;;15.50;99.90;;;;;;4945682;29;20182;-74
2021/03/28 12:07:42;;;;;;;7.53;3.03;;;15.40;99.90;;;;;;4956424;28;20653;-76
2021/03/28 12:10:07;;;;;;;0.50;0.43;;;15.30;99.90;;;;;;4958260;29;20180;-73
2021/03/28 12:13:14;;;;;;;1.70;1.60;;;15.30;99.90;;;;;;4958377;29;20533;-76
2021/03/28 12:15:45;;;;;;;0.40;0.40;;;15.40;99.90;;;;;;4958408;29;20561;-75
2021/03/28 12:18:28;;;;;;;0.30;0.30;;;15.40;99.90;;;;;;4958338;28;20198;-73
2021/03/28 12:21:02;;;;;;;0.28;0.28;;;15.60;99.90;;;;;;4958312;29;20313;-73
2021/03/28 12:23:49;;;;;;;0.35;0.35;;;15.90;99.90;;;;;;4958437;29;20174;-76
2021/03/28 12:26:28;;;;;;;3.25;1.00;;;15.50;99.90;;;;;;4958099;28;20638;-75
2021/03/28 12:29:13;;;;;;;1.35;0.47;;;15.60;99.90;;;;;;4940977;29;20178;-76
2021/03/28 12:31:50;;;;;;;2.72;1.20;;;15.50;99.90;;;;;;4958218;29;20198;-76
2021/03/28 12:34:35;;;;;;;0.10;0.10;;;15.30;99.90;;;;;;4958152;29;20529;-75
2021/03/28 12:37:08;;;;;;;0.68;0.68;;;15.60;99.90;;;;;;4958165;28;20218;-74
2021/03/28 12:39:54;;;;;;;0.25;0.25;;;15.50;99.90;;;;;;4958410;29;20185;-74
2021/03/28 12:42:35;;;;;;;0.80;0.80;;;15.50;99.90;;;;;;4957436;29;20178;-75
2021/03/28 12:45:06;;;;;;;1.95;1.20;;;15.70;99.90;;;;;;4957924;28;20194;-74
2021/03/28 12:47:37;;;;;;;0.30;0.30;;;15.80;99.90;;;;;;4957761;28;20226;-74
2021/03/28 12:50:14;;;;;;;0.40;0.40;;;15.80;99.90;;;;;;4957959;29;20501;-74
2021/03/28 12:52:42;;;;;;;0.20;0.20;;;15.80;99.90;;;;;;4957533;29;20218;-75
2021/03/28 12:55:33;;;;;;;0.45;0.45;;;15.70;99.90;;;;;;4957665;29;20177;-75
2021/03/28 12:58:08;;;;;;;0.43;0.43;;;15.60;99.90;;;;;;4957697;28;20241;-75
2021/03/28 13:00:49;;;;;;;3.10;0.75;;;15.60;99.90;;;;;;4957611;29;20597;-75
2021/03/28 13:03:27;;;;;;;0.77;0.60;;;15.50;99.90;;;;;;4957659;29;20653;-75
2021/03/28 13:06:01;;;;;;;3.55;0.80;;;15.30;99.90;;;;;;4957524;29;20163;-75
2021/03/28 13:08:29;;;;;;;0.28;0.28;;;15.30;99.90;;;;;;4957425;28;20211;-75
2021/03/28 13:11:01;;;;;;;0.20;0.20;;;15.20;99.90;;;;;;4957434;29;20210;-75
2021/03/28 13:13:29;;;;;;;0.68;0.68;;;15.20;99.90;;;;;;4957420;29;20202;-75
2021/03/28 13:15:57;;;;;;;0.68;0.68;;;15.20;99.90;;;;;;4957644;29;20202;-75
2021/03/28 13:18:24;;;;;;;0.70;0.70;;;15.30;99.90;;;;;;4956186;28;20278;-74
2021/03/28 13:20:56;;;;;;;0.30;0.30;;;15.40;99.90;;;;;;4957237;29;20217;-75
2021/03/28 13:23:32;;;;;;;5.57;1.17;;;15.30;99.90;;;;;;4957387;29;20257;-75
2021/03/28 13:26:13;;;;;;;0.30;0.30;;;15.60;99.90;;;;;;4939812;29;20580;-75
2021/03/28 13:28:40;;;;;;;0.57;0.57;;;15.70;99.90;;;;;;4957077;29;20626;-74
2021/03/28 13:31:35;;;;;;;0.55;0.55;;;15.60;99.90;;;;;;4957155;29;20198;-75
2021/03/28 13:34:17;;;;;;;0.73;0.73;;;15.50;99.90;;;;;;4929213;29;20191;-74
2021/03/28 13:37:00;;;;;;;0.43;0.43;;;15.50;99.90;;;;;;4956800;28;20760;-73
2021/03/28 13:39:28;;;;;;;0.47;0.45;;;15.40;99.90;;;;;;4956753;29;20166;-74
2021/03/28 13:41:56;;;;;;;0.32;0.32;;;15.30;99.90;;;;;;4957146;29;20159;-73
2021/03/28 13:44:30;;;;;;;1.35;1.05;;;15.40;99.90;;;;;;4956757;29;20202;-74
2021/03/28 13:47:00;;;;;;;0.30;0.30;;;15.40;99.90;;;;;;4956138;28;20226;-74
2021/03/28 13:49:45;;;;;;;0.73;0.73;;;15.50;99.90;;;;;;4956748;29;20175;-75
2021/03/28 13:52:24;;;;;;;0.30;0.30;;;15.60;99.90;;;;;;4956630;29;20526;-74
2021/03/28 13:55:08;;;;;;;0.90;0.90;;;15.50;99.90;;;;;;4956643;29;20185;-73
2021/03/28 13:57:38;;;;;;;6.13;0.90;;;15.70;99.90;;;;;;4956419;28;20217;-73
2021/03/28 14:00:34;;;;;;;1.60;0.88;;;15.70;99.90;;;;;;4956376;29;20186;-74
2021/03/28 14:03:12;;;;;;;1.17;1.08;;;15.70;99.90;;;;;;4956393;29;20167;-74
2021/03/28 14:05:41;;;;;;;0.63;0.63;;;15.70;99.90;;;;;;4956339;29;20158;-75
2021/03/28 14:08:14;;;;;;;0.32;0.32;;;15.60;99.90;;;;;;4956192;28;20195;-75
2021/03/28 14:10:59;;;;;;;0.93;0.50;;;15.70;99.90;;;;;;4956095;29;20253;-74
2021/03/28 14:13:28;;;;;;;0.35;0.35;;;15.70;99.90;;;;;;4956360;29;20233;-74
2021/03/28 14:16:00;;;;;;;0.28;0.28;;;15.70;99.90;;;;;;4956145;29;20668;-74
2021/03/28 14:18:49;;;;;;;2.92;1.35;;;15.50;99.90;;;;;;4956146;28;20221;-74
2021/03/28 14:21:34;;;;;;;1.05;0.32;;;15.60;99.90;;;;;;4955758;29;20177;-75
2021/03/28 14:24:19;;;;;;;0.68;0.68;;;15.60;99.90;;;;;;4956007;29;20224;-75